Flight Track Log - Related Links

Times and Time Zones

All times are in EDT time to prevent confusion due to time zone crossing. See the UAL4131 flight status page for this flight to view local times or setup timezone preferences in your user account.

Time Position Orientation Groundspeed Altitude Reporting Facility
EDT Latitude Longitude Course Direction KTS MPH feet Rate Location/Type
Wed 01:49:27 PM 39.2833 -94.6833 80° East 163 188 1,400  Level Kansas City TRACON
Wed 01:50:37 PM 39.2853 -94.6131 88° East 184 212 3,300 1,591 Climbing Kansas City Center
Wed 01:51:39 PM 39.3156 -94.5378 63° Northeast 256 295 4,900 2,129 Climbing Kansas City Center
Wed 01:52:00 PM 39.3269 -94.3755 80° East  Level FlightAware Approximate
Wed 01:52:41 PM 39.3383 -94.4328 74° East 275 316 7,700  Level Kansas City Center
Wed 01:53:00 PM 39.3447 -94.2454 80° East  Level FlightAware Approximate
Wed 01:53:43 PM 39.3486 -94.3342 82° East 287 330 9,800  Level Kansas City Center
Wed 01:54:00 PM 39.3624 -94.1152 80° East  Level FlightAware Approximate
Wed 01:54:45 PM 39.3614 -94.2089 82° East 322 371 10,900  Level Kansas City Center
Wed 01:55:47 PM 39.3725 -94.0847 83° East 361 415 12,300 1,452 Climbing Kansas City Center
Wed 01:56:49 PM 39.3844 -93.9578 83° East 372 428 13,900 1,597 Climbing Kansas City Center
Wed 01:57:51 PM 39.4039 -93.8086 80° East 377 434 15,600 1,355 Climbing Kansas City Center
Wed 01:58:53 PM 39.4214 -93.6831 80° East 384 442 16,700 1,161 Climbing Kansas City Center
Wed 01:59:55 PM 39.4417 -93.5131 81° East 402 463 18,000 1,210 Climbing Kansas City Center
Wed 02:00:57 PM 39.4594 -93.3697 81° East 406 467 19,200 1,161 Climbing Kansas City Center
Wed 02:01:59 PM 39.4761 -93.2250 81° East 409 471 20,400 1,152 Climbing Kansas City Center
Wed 02:03:02 PM 39.4933 -93.0775 81° East 417 480 21,600 1,152 Climbing Kansas City Center
Wed 02:04:04 PM 39.5097 -92.9272 82° East 424 488 22,800 1,161 Climbing Kansas City Center
Wed 02:05:06 PM 39.5303 -92.7467 82° East 427 491 24,000 1,161 Climbing Kansas City Center
Wed 02:06:08 PM 39.5481 -92.5986 81° East 425 489 25,200 1,161 Climbing Kansas City Center
Wed 02:07:10 PM 39.5642 -92.4497 82° East 424 488 26,400 1,161 Climbing Kansas City Center
Wed 02:08:12 PM 39.5808 -92.3019 82° East 421 484 27,600 1,306 Climbing Kansas City Center
Wed 02:09:14 PM 39.6011 -92.1267 81° East 417 480 29,100 1,258 Climbing Kansas City Center
Wed 02:10:16 PM 39.6161 -91.9819 82° East 415 478 30,200 1,016 Climbing Kansas City Center
Wed 02:11:18 PM 39.6308 -91.8372 82° East 412 474 31,200 968 Climbing Kansas City Center
Wed 02:12:20 PM 39.6467 -91.6900 82° East 414 476 32,200 968 Climbing Kansas City Center
Wed 02:13:22 PM 39.6619 -91.5433 82° East 415 478 33,200 1,065 Climbing Kansas City Center
Wed 02:14:24 PM 39.6792 -91.3692 83° East 412 474 34,400 871 Climbing Kansas City Center
Wed 02:15:26 PM 39.6925 -91.2369 82° East 410 472 35,000 290 Climbing Kansas City Center
Wed 02:16:28 PM 39.7075 -91.0892 82° East 411 473 35,000  Level Kansas City Center
Wed 02:17:30 PM 39.7278 -90.8983 82° East 433 498 35,000  Level Kansas City Center
Wed 02:18:32 PM 39.7433 -90.7314 83° East 453 521 35,000  Level Kansas City Center
Wed 02:19:34 PM 39.7606 -90.5517 83° East 469 540 35,000  Level Kansas City Center
Wed 02:20:36 PM 39.7764 -90.3825 83° East 474 545 35,000  Level Kansas City Center
Wed 02:21:38 PM 39.7917 -90.2117 83° East 476 548 35,000  Level Kansas City Center
Wed 02:22:40 PM 39.8078 -90.0408 83° East 478 550 35,000  Level Kansas City Center
Wed 02:23:42 PM 39.8225 -89.8708 84° East 477 549 35,000  Level Kansas City Center
Wed 02:24:44 PM 39.8378 -89.7019 83° East 475 547 35,000  Level Kansas City Center
Wed 02:25:46 PM 39.8411 -89.4967 89° East 476 548 35,000  Level Kansas City Center
Wed 02:27:49 PM 39.8417 -89.1517 90° East 478 550 35,000  Level Kansas City Center
Wed 02:28:51 PM 39.8419 -88.9800 90° East 477 549 35,000  Level Kansas City Center
Wed 02:29:53 PM 39.8417 -88.8081 90° East 478 550 35,000  Level Kansas City Center
Wed 02:30:55 PM 39.8422 -88.6033 90° East 475 547 35,000  Level Kansas City Center
Wed 02:31:57 PM 39.8414 -88.4353 90° East 471 542 35,000  Level Kansas City Center
Wed 02:32:59 PM 39.8417 -88.2653 90° East 470 541 35,000  Level Kansas City Center
Wed 02:34:01 PM 39.8397 -88.0828 91° East 466 536 35,000  Level Kansas City Center
Wed 02:34:17 PM 39.8383 -88.0411 92° East 465 535 35,000  Level Indianapolis Center
Wed 02:35:19 PM 39.8369 -87.8739 91° East 465 535 35,000  Level Indianapolis Center
Wed 02:36:21 PM 39.8364 -87.7072 90° East 464 534 35,000  Level Indianapolis Center
Wed 02:37:23 PM 39.8336 -87.5389 91° East 465 535 35,000  Level Indianapolis Center
Wed 02:38:24 PM 39.8311 -87.3731 91° East 463 533 35,000  Level Indianapolis Center
Wed 02:39:26 PM 39.8297 -87.2067 91° East 463 533 35,000  Level Indianapolis Center
Wed 02:40:28 PM 39.8267 -87.0092 91° East 458 527 35,000  Level Indianapolis Center
Wed 02:41:30 PM 39.8242 -86.8450 91° East 456 525 35,000  Level Indianapolis Center
Wed 02:42:32 PM 39.8211 -86.6800 91° East 457 526 35,000  Level Indianapolis Center
Wed 02:43:34 PM 39.8178 -86.5147 91° East 457 526 35,000  Level Indianapolis Center
Wed 02:44:36 PM 39.8214 -86.3486 88° East 454 522 35,000  Level Indianapolis Center
Wed 02:45:38 PM 39.8542 -86.1828 76° East 457 526 35,000  Level Indianapolis Center
Wed 02:46:40 PM 39.8875 -86.0244 75° East 451 519 35,000  Level Indianapolis Center
Wed 02:47:41 PM 39.9208 -85.8675 74° East 450 518 35,000  Level Indianapolis Center
Wed 02:48:43 PM 39.9606 -85.6800 74° East 449 517 35,000  Level Indianapolis Center
Wed 02:49:45 PM 39.9928 -85.5244 75° East 446 513 35,000  Level Indianapolis Center
Wed 02:50:47 PM 40.0242 -85.3686 75° East 447 514 35,000  Level Indianapolis Center
Wed 02:51:49 PM 40.0569 -85.2122 75° East 448 516 35,000  Level Indianapolis Center
Wed 02:52:51 PM 40.0886 -85.0544 75° East 450 518 35,000  Level Indianapolis Center
Wed 02:53:53 PM 40.1219 -84.8886 75° East 447 514 35,000  Level Indianapolis Center
Wed 02:54:55 PM 40.1531 -84.7278 76° East 452 520 35,000  Level Indianapolis Center
Wed 02:55:57 PM 40.1861 -84.5669 75° East 452 520 35,000  Level Indianapolis Center
Wed 02:56:59 PM 40.2217 -84.3800 76° East 452 520 35,000  Level Indianapolis Center
Wed 02:58:01 PM 40.2531 -84.2192 76° East 452 520 35,000  Level Indianapolis Center
Wed 02:59:03 PM 40.2856 -84.0569 75° East 454 522 35,000  Level Indianapolis Center
Wed 03:00:06 PM 40.3467 -83.9144 61° Northeast 442 509 35,000  Level Indianapolis Center
Wed 03:01:08 PM 40.4111 -83.7758 59° Northeast 440 506 35,000  Level Indianapolis Center
Wed 03:02:10 PM 40.4739 -83.6364 59° Northeast 439 505 35,000  Level Indianapolis Center
Wed 03:03:12 PM 40.5369 -83.4981 59° Northeast 437 503 35,000  Level Indianapolis Center
Wed 03:04:14 PM 40.6006 -83.3594 59° Northeast 437 503 35,000  Level Indianapolis Center
Wed 03:04:45 PM 40.6419 -83.2703 59° Northeast 436 502 35,000  Level Cleveland Center
Wed 03:05:45 PM 40.7056 -83.1331 59° Northeast 436 502 35,000  Level Cleveland Center
Wed 03:06:45 PM 40.7583 -83.0092 61° Northeast 436 502 35,000  Level Cleveland Center
Wed 03:07:45 PM 40.8217 -82.8714 59° Northeast 441 507 35,000  Level Cleveland Center
Wed 03:08:45 PM 40.8850 -82.7225 61° Northeast 430 495 35,000  Level Cleveland Center
Wed 03:09:45 PM 40.9394 -82.6033 59° Northeast 430 495 35,000  Level Cleveland Center
Wed 03:10:45 PM 41.0000 -82.4650 60° Northeast 425 489 35,000  Level Cleveland Center
Wed 03:11:45 PM 41.0608 -82.3236 60° Northeast 431 496 35,000  Level Cleveland Center
Wed 03:12:45 PM 41.1233 -82.1819 60° Northeast 437 503 35,000  Level Cleveland Center
Wed 03:13:45 PM 41.1900 -82.0261 60° Northeast 437 503 35,000  Level Cleveland Center
Wed 03:14:45 PM 41.2522 -81.8867 59° Northeast 437 503 35,000  Level Cleveland Center
Wed 03:15:45 PM 41.3097 -81.7525 60° Northeast 432 497 35,000  Level Cleveland Center
Wed 03:16:46 PM 41.3675 -81.6206 60° Northeast 425 489 35,000  Level Cleveland Center
Wed 03:17:45 PM 41.4247 -81.4831 61° Northeast 420 483 35,000  Level Cleveland Center
Wed 03:18:45 PM 41.4758 -81.3619 61° Northeast 415 478 35,000  Level Cleveland Center
Wed 03:19:45 PM 41.5331 -81.2239 61° Northeast 422 486 35,000  Level Cleveland Center
Wed 03:20:45 PM 41.5942 -81.0803 60° Northeast 422 486 35,000  Level Cleveland Center
Wed 03:21:45 PM 41.6550 -80.9389 60° Northeast 427 491 35,000  Level Cleveland Center
Wed 03:22:45 PM 41.7139 -80.7944 61° Northeast 437 503 35,000  Level Cleveland Center
Wed 03:23:46 PM 41.7306 -80.6389 82° East 422 486 35,000  Level Cleveland Center
Wed 03:24:45 PM 41.7222 -80.4636 94° East 417 480 35,000  Level Cleveland Center
Wed 03:25:45 PM 41.7094 -80.3050 96° East 423 487 35,000  Level Cleveland Center
Wed 03:26:45 PM 41.6986 -80.1494 95° East 423 487 35,000  Level Cleveland Center
Wed 03:27:45 PM 41.6853 -79.9936 96° East 423 487 35,000  Level Cleveland Center
Wed 03:28:45 PM 41.6742 -79.8381 95° East 423 487 35,000  Level Cleveland Center
Wed 03:29:45 PM 41.6625 -79.6825 96° East 423 487 35,000  Level Cleveland Center
Wed 03:30:45 PM 41.6508 -79.5244 96° East 423 487 35,000  Level Cleveland Center
Wed 03:31:45 PM 41.6347 -79.3692 98° East 428 493 35,000  Level Cleveland Center
Wed 03:32:45 PM 41.6244 -79.2136 95° East 423 487 35,000  Level Cleveland Center
Wed 03:33:45 PM 41.6103 -79.0642 97° East 423 487 35,000 -550 Level Cleveland Center
Wed 03:34:45 PM 41.5978 -78.9144 96° East 412 474 33,900 -1,250 Descending Cleveland Center
Wed 03:35:45 PM 41.5850 -78.7647 96° East 407 468 32,500 -1,400 Descending Cleveland Center
Wed 03:36:45 PM 41.5722 -78.6208 97° East 402 463 31,100 -750 Descending Cleveland Center
Wed 03:37:45 PM 41.5592 -78.4714 97° East 407 468 31,000 -50 Descending Cleveland Center
Wed 03:38:45 PM 41.5436 -78.3192 98° East 407 468 31,000  Level Cleveland Center
Wed 03:39:45 PM 41.5303 -78.1672 97° East 407 468 31,000  Level Cleveland Center
Wed 03:41:06 PM 41.5133 -77.9717 97° East 422 486 31,000  Level New York Center
Wed 03:42:07 PM 41.4914 -77.8197 101° East 414 476 31,000  Level New York Center
Wed 03:43:05 PM 41.4708 -77.6736 101° East 414 476 31,000  Level New York Center
Wed 03:44:05 PM 41.4500 -77.5247 101° East 414 476 31,000  Level New York Center
Wed 03:45:07 PM 41.4272 -77.3783 102° East 414 476 31,000  Level New York Center
Wed 03:46:07 PM 41.4042 -77.2294 102° East 414 476 31,000  Level New York Center
Wed 03:47:05 PM 41.3850 -77.0811 100° East 408 470 31,000 -101 Level New York Center
Wed 03:48:06 PM 41.3611 -76.9378 102° East 402 463 30,800 -1,190 Descending New York Center
Wed 03:49:06 PM 41.3375 -76.7892 102° East 402 463 28,600 99 Descending New York Center
Wed 03:50:07 PM 41.3097 -76.6789 109° East 397 457 31,000 -2,083 Climbing New York Center
Wed 03:51:07 PM 41.2714 -76.5267 108° East 378 435 24,400 -4,373 Descending New York Center
Wed 03:52:05 PM 41.2358 -76.3994 110° East 370 426 22,400 -2,017 Descending New York Center
Wed 03:53:06 PM 41.2000 -76.2778 111° Southeast 364 419 20,400 -1,983 Descending New York Center
Wed 03:54:06 PM 41.1722 -76.1569 107° East 352 405 18,400 -1,261 Descending New York Center
Wed 03:55:05 PM 41.1400 -76.0386 110° East 347 399 17,900 -908 Descending New York Center
Wed 03:56:05 PM 41.1133 -75.9347 109° East 337 388 16,600 -1,426 Descending New York Center
Wed 03:57:07 PM 41.0808 -75.8194 110° East 337 388 15,000 -1,672 Descending New York Center
Wed 03:58:07 PM 41.0444 -75.6928 111° Southeast 337 388 13,200 -1,017 Descending New York Center
Wed 03:59:05 PM 41.0139 -75.5778 109° East 337 388 13,000 -101 Descending New York Center
Wed 04:00:06 PM 40.9844 -75.4797 112° Southeast 332 382 13,000 -590 Level New York Center
Wed 04:01:07 PM 40.9517 -75.3592 110° East 327 376 11,800 -1,150 Descending New York Center
Wed 04:02:06 PM 40.9183 -75.2472 111° Southeast 327 376 10,700 -1,210 Descending New York Center
Wed 04:03:06 PM 40.8928 -75.1547 110° East 306 352 9,400 -1,613 Descending New York Center
Wed 04:04:05 PM 40.8714 -75.0575 106° East 287 330 7,500 -1,350 Descending New York Center
Wed 04:05:06 PM 40.8647 -74.9472 95° East 277 319 6,700 -744 Descending New York Center
Wed 04:06:06 PM 40.8600 -74.8481 94° East 277 319 6,000 -298 Descending New York Center
Wed 04:07:07 PM 40.8547 -74.7600 95° East 272 313 6,100  Climbing New York Center
Wed 04:08:05 PM 40.8478 -74.6500 95° East 272 313 6,000 -571 Descending New York Center
Wed 04:08:52 PM 40.8167 -74.5833 122° Southeast 266 306 5,100 -561 Descending New York TRACON
Wed 04:09:52 PM 40.7500 -74.5667 169° South 253 291 5,000  Descending New York TRACON
Wed 04:10:52 PM 40.7000 -74.5833 194° South 211 243 5,100 34 Climbing New York TRACON
Wed 04:12:46 PM 40.5833 -74.5833 180° South 212 244 5,100 -276 Level New York TRACON
Wed 04:13:46 PM 40.5333 -74.5667 166° South 210 242 4,300 -500 Descending New York TRACON
Wed 04:14:46 PM 40.4833 -74.5333 153° Southeast 205 236 4,100 -333 Descending New York TRACON
Wed 04:15:52 PM 40.4333 -74.4667 135° Southeast 232 267 3,600 -323 Descending New York TRACON
Wed 04:17:52 PM 40.4500 -74.3333 81° East 199 229 3,100 -167 Descending New York TRACON
Wed 04:18:52 PM 40.5000 -74.2833 37° Northeast 205 236 3,100 -50 Level New York TRACON
Wed 04:19:52 PM 40.5500 -74.2667 14° North 203 234 3,000 -100 Descending New York TRACON

Login

Don't have an account? Register now (free) for customized features, flight alerts, and more!